sensor_id;sensor_type;location;lat;lon;timestamp;P1;durP1;ratioP1;P2;durP2;ratioP2
35558;SDS011;21661;50.794;-1.066;2023-02-02T00:01:52;15.70;;;2.65;;
35558;SDS011;21661;50.794;-1.066;2023-02-02T00:04:21;20.77;;;2.80;;
35558;SDS011;21661;50.794;-1.066;2023-02-02T00:06:49;18.42;;;2.95;;
35558;SDS011;21661;50.794;-1.066;2023-02-02T00:09:16;17.30;;;2.92;;
35558;SDS011;21661;50.794;-1.066;2023-02-02T00:11:44;17.27;;;2.70;;
35558;SDS011;21661;50.794;-1.066;2023-02-02T00:14:11;17.55;;;3.08;;
35558;SDS011;21661;50.794;-1.066;2023-02-02T00:16:46;18.33;;;3.10;;
35558;SDS011;21661;50.794;-1.066;2023-02-02T00:19:14;12.30;;;2.67;;
35558;SDS011;21661;50.794;-1.066;2023-02-02T00:21:41;15.30;;;3.72;;
35558;SDS011;21661;50.794;-1.066;2023-02-02T00:24:08;17.83;;;2.70;;
35558;SDS011;21661;50.794;-1.066;2023-02-02T00:26:36;22.88;;;3.40;;
35558;SDS011;21661;50.794;-1.066;2023-02-02T00:29:03;15.90;;;4.00;;
35558;SDS011;21661;50.794;-1.066;2023-02-02T00:31:29;20.13;;;3.60;;
35558;SDS011;21661;50.794;-1.066;2023-02-02T00:33:55;13.63;;;2.45;;
35558;SDS011;21661;50.794;-1.066;2023-02-02T00:36:21;10.63;;;2.63;;
35558;SDS011;21661;50.794;-1.066;2023-02-02T00:38:47;13.60;;;2.45;;
35558;SDS011;21661;50.794;-1.066;2023-02-02T00:41:13;13.02;;;2.50;;
35558;SDS011;21661;50.794;-1.066;2023-02-02T00:43:40;17.38;;;2.55;;
35558;SDS011;21661;50.794;-1.066;2023-02-02T00:46:08;14.32;;;2.83;;
35558;SDS011;21661;50.794;-1.066;2023-02-02T00:48:37;17.10;;;2.70;;
35558;SDS011;21661;50.794;-1.066;2023-02-02T00:51:03;17.30;;;2.50;;
35558;SDS011;21661;50.794;-1.066;2023-02-02T00:53:28;13.60;;;2.72;;
35558;SDS011;21661;50.794;-1.066;2023-02-02T00:55:54;19.55;;;2.60;;
35558;SDS011;21661;50.794;-1.066;2023-02-02T00:58:20;12.40;;;2.75;;
35558;SDS011;21661;50.794;-1.066;2023-02-02T01:00:45;18.73;;;3.17;;
35558;SDS011;21661;50.794;-1.066;2023-02-02T01:03:11;10.20;;;2.17;;
35558;SDS011;21661;50.794;-1.066;2023-02-02T01:05:37;11.45;;;2.20;;
35558;SDS011;21661;50.794;-1.066;2023-02-02T01:08:03;17.45;;;2.55;;
35558;SDS011;21661;50.794;-1.066;2023-02-02T01:10:29;12.45;;;2.25;;
35558;SDS011;21661;50.794;-1.066;2023-02-02T01:12:55;9.52;;;2.00;;
35558;SDS011;21661;50.794;-1.066;2023-02-02T01:15:20;11.52;;;2.15;;
35558;SDS011;21661;50.794;-1.066;2023-02-02T01:17:46;20.42;;;2.47;;
35558;SDS011;21661;50.794;-1.066;2023-02-02T01:20:16;13.30;;;2.13;;
35558;SDS011;21661;50.794;-1.066;2023-02-02T01:22:43;11.43;;;2.50;;
35558;SDS011;21661;50.794;-1.066;2023-02-02T01:25:09;17.48;;;2.15;;
35558;SDS011;21661;50.794;-1.066;2023-02-02T01:27:35;19.75;;;3.25;;
35558;SDS011;21661;50.794;-1.066;2023-02-02T01:30:00;17.08;;;2.92;;
35558;SDS011;21661;50.794;-1.066;2023-02-02T01:32:26;12.45;;;2.25;;
35558;SDS011;21661;50.794;-1.066;2023-02-02T01:34:52;10.75;;;3.38;;
35558;SDS011;21661;50.794;-1.066;2023-02-02T01:37:17;11.57;;;2.00;;
35558;SDS011;21661;50.794;-1.066;2023-02-02T01:39:43;17.15;;;2.13;;
35558;SDS011;21661;50.794;-1.066;2023-02-02T01:42:12;10.68;;;2.08;;
35558;SDS011;21661;50.794;-1.066;2023-02-02T01:47:26;15.02;;;2.30;;
35558;SDS011;21661;50.794;-1.066;2023-02-02T01:49:54;10.02;;;2.28;;
35558;SDS011;21661;50.794;-1.066;2023-02-02T01:52:20;17.33;;;2.85;;
35558;SDS011;21661;50.794;-1.066;2023-02-02T01:54:49;12.43;;;2.00;;
35558;SDS011;21661;50.794;-1.066;2023-02-02T01:57:28;11.43;;;1.70;;
35558;SDS011;21661;50.794;-1.066;2023-02-02T01:59:59;10.27;;;1.52;;
35558;SDS011;21661;50.794;-1.066;2023-02-02T02:02:28;7.95;;;1.95;;
35558;SDS011;21661;50.794;-1.066;2023-02-02T02:04:55;8.75;;;2.42;;
35558;SDS011;21661;50.794;-1.066;2023-02-02T02:07:22;10.73;;;2.03;;
35558;SDS011;21661;50.794;-1.066;2023-02-02T02:09:48;7.88;;;1.70;;
35558;SDS011;21661;50.794;-1.066;2023-02-02T02:12:14;9.18;;;1.70;;
35558;SDS011;21661;50.794;-1.066;2023-02-02T02:14:40;13.70;;;2.53;;
35558;SDS011;21661;50.794;-1.066;2023-02-02T02:35:02;15.70;;;2.83;;
35558;SDS011;21661;50.794;-1.066;2023-02-02T02:37:53;11.32;;;1.90;;
35558;SDS011;21661;50.794;-1.066;2023-02-02T02:40:34;11.40;;;1.52;;
35558;SDS011;21661;50.794;-1.066;2023-02-02T02:43:12;8.55;;;1.58;;
35558;SDS011;21661;50.794;-1.066;2023-02-02T02:45:51;10.52;;;1.67;;
35558;SDS011;21661;50.794;-1.066;2023-02-02T02:48:17;7.82;;;1.80;;
35558;SDS011;21661;50.794;-1.066;2023-02-02T02:50:43;10.13;;;1.50;;
35558;SDS011;21661;50.794;-1.066;2023-02-02T02:53:10;9.40;;;1.98;;
35558;SDS011;21661;50.794;-1.066;2023-02-02T02:55:47;11.25;;;2.08;;
35558;SDS011;21661;50.794;-1.066;2023-02-02T02:58:45;12.88;;;1.90;;
35558;SDS011;21661;50.794;-1.066;2023-02-02T03:09:06;10.20;;;1.55;;
35558;SDS011;21661;50.794;-1.066;2023-02-02T03:11:36;14.40;;;1.52;;
35558;SDS011;21661;50.794;-1.066;2023-02-02T03:14:02;13.15;;;2.30;;
35558;SDS011;21661;50.794;-1.066;2023-02-02T03:16:28;9.10;;;1.80;;
35558;SDS011;21661;50.794;-1.066;2023-02-02T03:18:54;13.68;;;1.60;;
35558;SDS011;21661;50.794;-1.066;2023-02-02T03:21:21;13.80;;;1.40;;
35558;SDS011;21661;50.794;-1.066;2023-02-02T03:23:47;12.38;;;2.13;;
35558;SDS011;21661;50.794;-1.066;2023-02-02T03:26:13;12.18;;;2.03;;
35558;SDS011;21661;50.794;-1.066;2023-02-02T03:28:39;13.98;;;1.70;;
35558;SDS011;21661;50.794;-1.066;2023-02-02T03:31:04;12.35;;;2.97;;
35558;SDS011;21661;50.794;-1.066;2023-02-02T03:33:32;11.60;;;1.80;;
35558;SDS011;21661;50.794;-1.066;2023-02-02T03:36:00;11.88;;;2.83;;
35558;SDS011;21661;50.794;-1.066;2023-02-02T03:38:26;12.40;;;1.73;;
35558;SDS011;21661;50.794;-1.066;2023-02-02T03:40:52;12.73;;;2.50;;
35558;SDS011;21661;50.794;-1.066;2023-02-02T03:43:20;8.95;;;1.77;;
35558;SDS011;21661;50.794;-1.066;2023-02-02T03:45:47;8.55;;;1.70;;
35558;SDS011;21661;50.794;-1.066;2023-02-02T03:48:12;13.02;;;2.28;;
35558;SDS011;21661;50.794;-1.066;2023-02-02T03:50:38;12.80;;;2.08;;
35558;SDS011;21661;50.794;-1.066;2023-02-02T03:53:03;12.70;;;2.40;;
35558;SDS011;21661;50.794;-1.066;2023-02-02T03:55:29;12.90;;;1.92;;
35558;SDS011;21661;50.794;-1.066;2023-02-02T03:57:55;12.93;;;1.90;;
35558;SDS011;21661;50.794;-1.066;2023-02-02T04:00:21;7.55;;;1.77;;
35558;SDS011;21661;50.794;-1.066;2023-02-02T04:02:46;15.48;;;1.80;;
35558;SDS011;21661;50.794;-1.066;2023-02-02T04:05:12;12.02;;;2.17;;
35558;SDS011;21661;50.794;-1.066;2023-02-02T04:07:38;10.52;;;1.90;;
35558;SDS011;21661;50.794;-1.066;2023-02-02T04:10:03;12.27;;;1.75;;
35558;SDS011;21661;50.794;-1.066;2023-02-02T04:12:29;12.80;;;1.95;;
35558;SDS011;21661;50.794;-1.066;2023-02-02T04:14:55;13.48;;;1.40;;
35558;SDS011;21661;50.794;-1.066;2023-02-02T04:17:20;15.38;;;1.90;;
35558;SDS011;21661;50.794;-1.066;2023-02-02T04:19:46;11.95;;;1.50;;
35558;SDS011;21661;50.794;-1.066;2023-02-02T04:22:11;13.73;;;1.33;;
35558;SDS011;21661;50.794;-1.066;2023-02-02T04:24:37;11.65;;;1.60;;
35558;SDS011;21661;50.794;-1.066;2023-02-02T04:27:03;10.57;;;1.70;;
35558;SDS011;21661;50.794;-1.066;2023-02-02T04:29:28;14.30;;;1.90;;
35558;SDS011;21661;50.794;-1.066;2023-02-02T04:31:54;12.60;;;2.08;;
35558;SDS011;21661;50.794;-1.066;2023-02-02T04:34:20;8.43;;;1.63;;
35558;SDS011;21661;50.794;-1.066;2023-02-02T04:36:45;11.40;;;2.42;;
35558;SDS011;21661;50.794;-1.066;2023-02-02T04:39:11;14.23;;;1.70;;
35558;SDS011;21661;50.794;-1.066;2023-02-02T04:41:37;13.13;;;1.83;;
35558;SDS011;21661;50.794;-1.066;2023-02-02T04:44:02;11.18;;;1.58;;
35558;SDS011;21661;50.794;-1.066;2023-02-02T04:46:30;7.38;;;1.77;;
35558;SDS011;21661;50.794;-1.066;2023-02-02T04:48:56;11.45;;;1.60;;
35558;SDS011;21661;50.794;-1.066;2023-02-02T04:51:22;9.55;;;1.63;;
35558;SDS011;21661;50.794;-1.066;2023-02-02T04:53:47;13.52;;;1.88;;
35558;SDS011;21661;50.794;-1.066;2023-02-02T04:56:14;11.35;;;1.58;;
35558;SDS011;21661;50.794;-1.066;2023-02-02T04:58:41;11.70;;;1.55;;
35558;SDS011;21661;50.794;-1.066;2023-02-02T05:01:08;11.90;;;1.65;;
35558;SDS011;21661;50.794;-1.066;2023-02-02T05:03:39;10.73;;;1.55;;
35558;SDS011;21661;50.794;-1.066;2023-02-02T05:06:05;8.95;;;1.98;;
35558;SDS011;21661;50.794;-1.066;2023-02-02T05:08:32;11.13;;;1.52;;
35558;SDS011;21661;50.794;-1.066;2023-02-02T05:10:58;7.28;;;1.40;;
35558;SDS011;21661;50.794;-1.066;2023-02-02T05:13:24;10.98;;;2.25;;
35558;SDS011;21661;50.794;-1.066;2023-02-02T05:15:50;9.10;;;1.70;;
35558;SDS011;21661;50.794;-1.066;2023-02-02T05:18:15;11.43;;;1.33;;
35558;SDS011;21661;50.794;-1.066;2023-02-02T05:20:41;12.93;;;2.30;;
35558;SDS011;21661;50.794;-1.066;2023-02-02T05:23:06;11.70;;;1.40;;
35558;SDS011;21661;50.794;-1.066;2023-02-02T05:25:32;9.00;;;1.48;;
35558;SDS011;21661;50.794;-1.066;2023-02-02T05:27:57;12.98;;;1.83;;
35558;SDS011;21661;50.794;-1.066;2023-02-02T05:30:23;8.93;;;1.27;;
35558;SDS011;21661;50.794;-1.066;2023-02-02T05:32:49;8.55;;;1.45;;
35558;SDS011;21661;50.794;-1.066;2023-02-02T05:35:14;10.05;;;2.22;;
35558;SDS011;21661;50.794;-1.066;2023-02-02T05:37:43;10.73;;;1.35;;
35558;SDS011;21661;50.794;-1.066;2023-02-02T05:40:09;6.63;;;1.17;;
35558;SDS011;21661;50.794;-1.066;2023-02-02T05:42:35;11.90;;;2.10;;
35558;SDS011;21661;50.794;-1.066;2023-02-02T05:45:00;9.18;;;1.60;;
35558;SDS011;21661;50.794;-1.066;2023-02-02T05:47:26;10.93;;;1.50;;
35558;SDS011;21661;50.794;-1.066;2023-02-02T05:49:52;9.93;;;1.60;;
35558;SDS011;21661;50.794;-1.066;2023-02-02T05:52:18;9.52;;;1.05;;
35558;SDS011;21661;50.794;-1.066;2023-02-02T05:54:46;10.02;;;1.13;;
35558;SDS011;21661;50.794;-1.066;2023-02-02T05:57:11;14.77;;;1.60;;
35558;SDS011;21661;50.794;-1.066;2023-02-02T05:59:37;7.90;;;2.33;;
35558;SDS011;21661;50.794;-1.066;2023-02-02T06:02:02;7.60;;;1.45;;
35558;SDS011;21661;50.794;-1.066;2023-02-02T06:04:28;5.85;;;1.23;;
35558;SDS011;21661;50.794;-1.066;2023-02-02T06:06:54;13.63;;;1.98;;
35558;SDS011;21661;50.794;-1.066;2023-02-02T06:09:19;10.07;;;1.70;;
35558;SDS011;21661;50.794;-1.066;2023-02-02T06:11:47;9.50;;;2.03;;
35558;SDS011;21661;50.794;-1.066;2023-02-02T06:14:12;8.40;;;1.38;;
35558;SDS011;21661;50.794;-1.066;2023-02-02T06:16:38;15.18;;;1.65;;
35558;SDS011;21661;50.794;-1.066;2023-02-02T06:19:04;10.50;;;1.42;;
35558;SDS011;21661;50.794;-1.066;2023-02-02T06:21:29;8.30;;;1.33;;
35558;SDS011;21661;50.794;-1.066;2023-02-02T06:23:55;13.30;;;1.20;;
35558;SDS011;21661;50.794;-1.066;2023-02-02T06:26:22;9.18;;;1.60;;
35558;SDS011;21661;50.794;-1.066;2023-02-02T06:28:49;10.18;;;1.70;;
35558;SDS011;21661;50.794;-1.066;2023-02-02T06:31:16;12.77;;;1.42;;
35558;SDS011;21661;50.794;-1.066;2023-02-02T06:33:46;7.30;;;1.20;;
35558;SDS011;21661;50.794;-1.066;2023-02-02T06:36:12;7.50;;;1.15;;
35558;SDS011;21661;50.794;-1.066;2023-02-02T06:38:38;14.02;;;1.60;;
35558;SDS011;21661;50.794;-1.066;2023-02-02T06:41:04;9.98;;;1.83;;
35558;SDS011;21661;50.794;-1.066;2023-02-02T06:43:30;8.45;;;1.70;;
35558;SDS011;21661;50.794;-1.066;2023-02-02T06:45:56;8.90;;;2.28;;
35558;SDS011;21661;50.794;-1.066;2023-02-02T06:48:22;12.07;;;3.35;;
35558;SDS011;21661;50.794;-1.066;2023-02-02T06:50:48;15.32;;;3.50;;
35558;SDS011;21661;50.794;-1.066;2023-02-02T06:53:14;12.75;;;2.70;;
35558;SDS011;21661;50.794;-1.066;2023-02-02T06:55:51;9.32;;;2.00;;
35558;SDS011;21661;50.794;-1.066;2023-02-02T06:58:20;12.82;;;2.00;;
35558;SDS011;21661;50.794;-1.066;2023-02-02T07:00:46;8.35;;;1.70;;
35558;SDS011;21661;50.794;-1.066;2023-02-02T07:03:12;10.63;;;1.67;;
35558;SDS011;21661;50.794;-1.066;2023-02-02T07:05:38;17.08;;;1.50;;
35558;SDS011;21661;50.794;-1.066;2023-02-02T07:08:04;11.65;;;1.50;;
35558;SDS011;21661;50.794;-1.066;2023-02-02T07:10:29;15.48;;;1.48;;
35558;SDS011;21661;50.794;-1.066;2023-02-02T07:12:55;7.75;;;1.42;;
35558;SDS011;21661;50.794;-1.066;2023-02-02T07:15:21;8.35;;;1.35;;
35558;SDS011;21661;50.794;-1.066;2023-02-02T07:17:46;15.75;;;2.75;;
35558;SDS011;21661;50.794;-1.066;2023-02-02T07:20:12;12.23;;;2.03;;
35558;SDS011;21661;50.794;-1.066;2023-02-02T07:22:38;11.85;;;1.65;;
35558;SDS011;21661;50.794;-1.066;2023-02-02T07:25:04;10.85;;;1.40;;
35558;SDS011;21661;50.794;-1.066;2023-02-02T07:27:31;12.45;;;1.55;;
35558;SDS011;21661;50.794;-1.066;2023-02-02T07:29:57;13.18;;;1.55;;
35558;SDS011;21661;50.794;-1.066;2023-02-02T07:32:22;9.73;;;1.50;;
35558;SDS011;21661;50.794;-1.066;2023-02-02T07:34:48;10.02;;;1.58;;
35558;SDS011;21661;50.794;-1.066;2023-02-02T07:37:15;10.05;;;1.30;;
35558;SDS011;21661;50.794;-1.066;2023-02-02T07:39:40;9.45;;;1.33;;
35558;SDS011;21661;50.794;-1.066;2023-02-02T07:42:09;6.50;;;1.40;;
35558;SDS011;21661;50.794;-1.066;2023-02-02T07:44:36;12.45;;;1.63;;
35558;SDS011;21661;50.794;-1.066;2023-02-02T07:47:01;14.75;;;1.52;;
35558;SDS011;21661;50.794;-1.066;2023-02-02T07:49:27;13.73;;;1.65;;
35558;SDS011;21661;50.794;-1.066;2023-02-02T07:51:52;13.07;;;1.70;;
35558;SDS011;21661;50.794;-1.066;2023-02-02T07:54:18;14.68;;;1.30;;
35558;SDS011;21661;50.794;-1.066;2023-02-02T07:56:44;14.07;;;1.98;;
35558;SDS011;21661;50.794;-1.066;2023-02-02T07:59:10;9.27;;;1.33;;
35558;SDS011;21661;50.794;-1.066;2023-02-02T08:01:36;12.63;;;2.92;;
35558;SDS011;21661;50.794;-1.066;2023-02-02T08:04:02;11.02;;;1.80;;
35558;SDS011;21661;50.794;-1.066;2023-02-02T08:06:35;10.32;;;2.10;;
35558;SDS011;21661;50.794;-1.066;2023-02-02T08:09:03;6.10;;;1.55;;
35558;SDS011;21661;50.794;-1.066;2023-02-02T08:11:31;12.93;;;2.40;;
35558;SDS011;21661;50.794;-1.066;2023-02-02T08:13:58;8.45;;;2.97;;
35558;SDS011;21661;50.794;-1.066;2023-02-02T08:16:27;15.80;;;2.33;;
35558;SDS011;21661;50.794;-1.066;2023-02-02T08:18:54;16.80;;;2.72;;
35558;SDS011;21661;50.794;-1.066;2023-02-02T08:21:20;12.18;;;2.17;;
35558;SDS011;21661;50.794;-1.066;2023-02-02T08:23:46;10.43;;;2.00;;
35558;SDS011;21661;50.794;-1.066;2023-02-02T08:28:47;15.52;;;2.33;;
35558;SDS011;21661;50.794;-1.066;2023-02-02T08:31:20;10.02;;;1.50;;
35558;SDS011;21661;50.794;-1.066;2023-02-02T08:33:46;9.75;;;1.45;;
35558;SDS011;21661;50.794;-1.066;2023-02-02T08:36:16;12.55;;;2.05;;
35558;SDS011;21661;50.794;-1.066;2023-02-02T08:38:43;10.57;;;1.52;;
35558;SDS011;21661;50.794;-1.066;2023-02-02T08:41:10;14.13;;;2.15;;
35558;SDS011;21661;50.794;-1.066;2023-02-02T08:43:38;11.50;;;2.15;;
35558;SDS011;21661;50.794;-1.066;2023-02-02T08:46:04;16.48;;;1.83;;
35558;SDS011;21661;50.794;-1.066;2023-02-02T08:48:33;10.85;;;1.52;;
35558;SDS011;21661;50.794;-1.066;2023-02-02T08:50:59;15.38;;;2.05;;
35558;SDS011;21661;50.794;-1.066;2023-02-02T08:53:25;16.10;;;1.70;;
35558;SDS011;21661;50.794;-1.066;2023-02-02T08:55:58;11.52;;;1.52;;
35558;SDS011;21661;50.794;-1.066;2023-02-02T08:58:32;13.93;;;1.60;;
35558;SDS011;21661;50.794;-1.066;2023-02-02T09:01:08;6.13;;;1.70;;
35558;SDS011;21661;50.794;-1.066;2023-02-02T09:03:37;12.38;;;1.58;;
35558;SDS011;21661;50.794;-1.066;2023-02-02T09:06:08;7.25;;;1.27;;
35558;SDS011;21661;50.794;-1.066;2023-02-02T09:08:35;11.32;;;1.38;;
35558;SDS011;21661;50.794;-1.066;2023-02-02T09:13:41;5.50;;;1.20;;
35558;SDS011;21661;50.794;-1.066;2023-02-02T09:16:09;6.10;;;1.50;;
35558;SDS011;21661;50.794;-1.066;2023-02-02T09:18:36;8.77;;;1.60;;
35558;SDS011;21661;50.794;-1.066;2023-02-02T09:21:03;9.18;;;1.27;;
35558;SDS011;21661;50.794;-1.066;2023-02-02T09:23:30;9.75;;;1.17;;
35558;SDS011;21661;50.794;-1.066;2023-02-02T09:26:00;9.13;;;1.13;;
35558;SDS011;21661;50.794;-1.066;2023-02-02T09:28:55;6.53;;;1.33;;
35558;SDS011;21661;50.794;-1.066;2023-02-02T09:31:23;8.70;;;1.08;;
35558;SDS011;21661;50.794;-1.066;2023-02-02T09:33:49;5.97;;;1.40;;
35558;SDS011;21661;50.794;-1.066;2023-02-02T09:36:19;8.30;;;1.85;;
35558;SDS011;21661;50.794;-1.066;2023-02-02T09:38:46;7.75;;;1.73;;
35558;SDS011;21661;50.794;-1.066;2023-02-02T09:49:18;5.63;;;1.13;;
35558;SDS011;21661;50.794;-1.066;2023-02-02T09:51:55;8.68;;;1.70;;
35558;SDS011;21661;50.794;-1.066;2023-02-02T09:54:36;15.63;;;1.88;;
35558;SDS011;21661;50.794;-1.066;2023-02-02T09:57:12;9.48;;;1.92;;
35558;SDS011;21661;50.794;-1.066;2023-02-02T09:59:45;7.30;;;1.20;;
35558;SDS011;21661;50.794;-1.066;2023-02-02T10:02:19;7.65;;;1.50;;
35558;SDS011;21661;50.794;-1.066;2023-02-02T10:05:18;11.38;;;1.35;;
35558;SDS011;21661;50.794;-1.066;2023-02-02T10:07:47;6.93;;;1.35;;
35558;SDS011;21661;50.794;-1.066;2023-02-02T10:10:18;6.17;;;0.97;;
35558;SDS011;21661;50.794;-1.066;2023-02-02T10:15:37;7.30;;;1.50;;
35558;SDS011;21661;50.794;-1.066;2023-02-02T10:18:20;11.75;;;1.60;;
35558;SDS011;21661;50.794;-1.066;2023-02-02T10:20:56;8.88;;;1.90;;
35558;SDS011;21661;50.794;-1.066;2023-02-02T10:23:38;6.65;;;1.30;;
35558;SDS011;21661;50.794;-1.066;2023-02-02T10:26:16;7.28;;;1.67;;
35558;SDS011;21661;50.794;-1.066;2023-02-02T10:34:25;11.75;;;1.17;;
35558;SDS011;21661;50.794;-1.066;2023-02-02T10:39:31;7.38;;;1.98;;
35558;SDS011;21661;50.794;-1.066;2023-02-02T10:44:59;5.75;;;1.27;;
35558;SDS011;21661;50.794;-1.066;2023-02-02T10:47:32;6.88;;;1.60;;
35558;SDS011;21661;50.794;-1.066;2023-02-02T10:50:12;8.57;;;1.55;;
35558;SDS011;21661;50.794;-1.066;2023-02-02T10:52:52;7.75;;;1.50;;
35558;SDS011;21661;50.794;-1.066;2023-02-02T10:55:39;8.57;;;1.83;;
35558;SDS011;21661;50.794;-1.066;2023-02-02T11:01:21;7.90;;;1.33;;
35558;SDS011;21661;50.794;-1.066;2023-02-02T11:03:47;6.13;;;1.25;;
35558;SDS011;21661;50.794;-1.066;2023-02-02T11:06:33;14.52;;;1.60;;
35558;SDS011;21661;50.794;-1.066;2023-02-02T11:09:19;9.63;;;1.52;;
35558;SDS011;21661;50.794;-1.066;2023-02-02T11:11:49;8.32;;;1.20;;
35558;SDS011;21661;50.794;-1.066;2023-02-02T11:14:33;9.18;;;1.00;;
35558;SDS011;21661;50.794;-1.066;2023-02-02T11:17:04;11.98;;;1.85;;
35558;SDS011;21661;50.794;-1.066;2023-02-02T11:19:31;6.13;;;1.10;;
35558;SDS011;21661;50.794;-1.066;2023-02-02T11:22:02;5.95;;;1.30;;
35558;SDS011;21661;50.794;-1.066;2023-02-02T11:24:45;5.78;;;1.45;;
35558;SDS011;21661;50.794;-1.066;2023-02-02T11:27:14;5.25;;;1.33;;
35558;SDS011;21661;50.794;-1.066;2023-02-02T11:29:46;6.35;;;1.40;;
35558;SDS011;21661;50.794;-1.066;2023-02-02T11:37:26;4.32;;;1.42;;
35558;SDS011;21661;50.794;-1.066;2023-02-02T11:39:52;4.75;;;1.30;;
35558;SDS011;21661;50.794;-1.066;2023-02-02T11:42:19;7.45;;;1.55;;
35558;SDS011;21661;50.794;-1.066;2023-02-02T11:47:20;5.40;;;1.25;;
35558;SDS011;21661;50.794;-1.066;2023-02-02T11:49:54;9.30;;;1.33;;
35558;SDS011;21661;50.794;-1.066;2023-02-02T11:52:23;9.13;;;1.50;;
35558;SDS011;21661;50.794;-1.066;2023-02-02T11:54:51;7.53;;;1.60;;
35558;SDS011;21661;50.794;-1.066;2023-02-02T11:57:22;4.72;;;1.30;;
35558;SDS011;21661;50.794;-1.066;2023-02-02T11:59:50;6.93;;;1.48;;
35558;SDS011;21661;50.794;-1.066;2023-02-02T12:02:30;7.18;;;1.20;;
35558;SDS011;21661;50.794;-1.066;2023-02-02T12:07:34;6.10;;;1.08;;
35558;SDS011;21661;50.794;-1.066;2023-02-02T12:10:10;6.25;;;0.85;;
35558;SDS011;21661;50.794;-1.066;2023-02-02T12:15:45;5.90;;;1.00;;
35558;SDS011;21661;50.794;-1.066;2023-02-02T12:21:05;9.32;;;1.73;;
35558;SDS011;21661;50.794;-1.066;2023-02-02T12:23:47;6.07;;;1.13;;
35558;SDS011;21661;50.794;-1.066;2023-02-02T12:26:30;5.60;;;0.88;;
35558;SDS011;21661;50.794;-1.066;2023-02-02T12:35:12;7.28;;;1.13;;
35558;SDS011;21661;50.794;-1.066;2023-02-02T12:44:14;4.30;;;1.00;;
35558;SDS011;21661;50.794;-1.066;2023-02-02T12:46:58;7.68;;;1.30;;
35558;SDS011;21661;50.794;-1.066;2023-02-02T12:52:09;7.40;;;1.50;;
35558;SDS011;21661;50.794;-1.066;2023-02-02T12:55:09;11.05;;;1.73;;
35558;SDS011;21661;50.794;-1.066;2023-02-02T13:05:41;9.93;;;1.48;;
35558;SDS011;21661;50.794;-1.066;2023-02-02T13:08:11;8.98;;;1.48;;
35558;SDS011;21661;50.794;-1.066;2023-02-02T13:10:46;7.60;;;1.50;;
35558;SDS011;21661;50.794;-1.066;2023-02-02T13:13:17;5.95;;;1.10;;
35558;SDS011;21661;50.794;-1.066;2023-02-02T13:15:45;11.40;;;1.33;;
35558;SDS011;21661;50.794;-1.066;2023-02-02T13:18:17;6.28;;;1.10;;
35558;SDS011;21661;50.794;-1.066;2023-02-02T13:20:48;8.07;;;1.30;;
35558;SDS011;21661;50.794;-1.066;2023-02-02T13:25:55;6.57;;;0.95;;
35558;SDS011;21661;50.794;-1.066;2023-02-02T13:34:22;5.32;;;1.45;;
35558;SDS011;21661;50.794;-1.066;2023-02-02T13:37:05;10.65;;;1.58;;
35558;SDS011;21661;50.794;-1.066;2023-02-02T13:39:48;7.70;;;1.75;;
35558;SDS011;21661;50.794;-1.066;2023-02-02T13:45:25;10.40;;;1.95;;
35558;SDS011;21661;50.794;-1.066;2023-02-02T13:53:44;9.07;;;1.90;;
35558;SDS011;21661;50.794;-1.066;2023-02-02T13:56:45;7.40;;;1.05;;
35558;SDS011;21661;50.794;-1.066;2023-02-02T13:59:29;7.85;;;1.38;;
35558;SDS011;21661;50.794;-1.066;2023-02-02T14:05:26;7.95;;;1.15;;
35558;SDS011;21661;50.794;-1.066;2023-02-02T14:07:57;11.25;;;2.17;;
35558;SDS011;21661;50.794;-1.066;2023-02-02T14:10:34;6.38;;;1.20;;
35558;SDS011;21661;50.794;-1.066;2023-02-02T14:15:54;10.18;;;1.88;;
35558;SDS011;21661;50.794;-1.066;2023-02-02T14:26:46;10.75;;;1.88;;
35558;SDS011;21661;50.794;-1.066;2023-02-02T14:32:26;7.88;;;2.22;;
35558;SDS011;21661;50.794;-1.066;2023-02-02T14:45:37;13.20;;;2.30;;
35558;SDS011;21661;50.794;-1.066;2023-02-02T14:58:25;12.43;;;1.92;;
35558;SDS011;21661;50.794;-1.066;2023-02-02T15:06:04;18.00;;;2.33;;
35558;SDS011;21661;50.794;-1.066;2023-02-02T15:17:04;13.40;;;1.80;;
35558;SDS011;21661;50.794;-1.066;2023-02-02T15:19:41;10.45;;;2.35;;
35558;SDS011;21661;50.794;-1.066;2023-02-02T15:25:10;12.18;;;1.58;;
35558;SDS011;21661;50.794;-1.066;2023-02-02T15:27:54;10.27;;;1.75;;
35558;SDS011;21661;50.794;-1.066;2023-02-02T15:30:43;19.27;;;2.22;;
35558;SDS011;21661;50.794;-1.066;2023-02-02T15:33:23;15.23;;;2.20;;
35558;SDS011;21661;50.794;-1.066;2023-02-02T15:35:59;9.15;;;1.83;;
35558;SDS011;21661;50.794;-1.066;2023-02-02T15:38:36;9.73;;;1.77;;
35558;SDS011;21661;50.794;-1.066;2023-02-02T15:41:04;9.40;;;1.95;;
35558;SDS011;21661;50.794;-1.066;2023-02-02T15:43:40;17.33;;;2.05;;
35558;SDS011;21661;50.794;-1.066;2023-02-02T15:46:08;10.68;;;1.95;;
35558;SDS011;21661;50.794;-1.066;2023-02-02T15:48:37;10.65;;;1.42;;
35558;SDS011;21661;50.794;-1.066;2023-02-02T15:51:04;9.35;;;1.98;;
35558;SDS011;21661;50.794;-1.066;2023-02-02T15:58:48;15.55;;;2.28;;
35558;SDS011;21661;50.794;-1.066;2023-02-02T16:01:19;11.43;;;1.58;;
35558;SDS011;21661;50.794;-1.066;2023-02-02T16:03:48;8.30;;;2.30;;
35558;SDS011;21661;50.794;-1.066;2023-02-02T16:06:34;11.98;;;1.83;;
35558;SDS011;21661;50.794;-1.066;2023-02-02T16:09:03;13.48;;;3.03;;
35558;SDS011;21661;50.794;-1.066;2023-02-02T16:11:29;10.30;;;1.73;;
35558;SDS011;21661;50.794;-1.066;2023-02-02T16:14:02;9.98;;;2.10;;
35558;SDS011;21661;50.794;-1.066;2023-02-02T16:16:31;10.98;;;1.85;;
35558;SDS011;21661;50.794;-1.066;2023-02-02T16:19:19;12.35;;;2.20;;
35558;SDS011;21661;50.794;-1.066;2023-02-02T16:21:53;12.93;;;2.60;;
35558;SDS011;21661;50.794;-1.066;2023-02-02T16:24:40;10.70;;;2.33;;
35558;SDS011;21661;50.794;-1.066;2023-02-02T16:27:17;13.80;;;2.63;;
35558;SDS011;21661;50.794;-1.066;2023-02-02T16:29:45;6.68;;;2.38;;
35558;SDS011;21661;50.794;-1.066;2023-02-02T16:34:56;7.22;;;1.90;;
35558;SDS011;21661;50.794;-1.066;2023-02-02T16:37:29;11.30;;;1.90;;
35558;SDS011;21661;50.794;-1.066;2023-02-02T16:40:14;8.27;;;1.52;;
35558;SDS011;21661;50.794;-1.066;2023-02-02T16:43:05;10.02;;;2.17;;
35558;SDS011;21661;50.794;-1.066;2023-02-02T16:45:43;7.68;;;1.92;;
35558;SDS011;21661;50.794;-1.066;2023-02-02T16:48:19;10.27;;;2.17;;
35558;SDS011;21661;50.794;-1.066;2023-02-02T16:51:41;16.08;;;2.97;;
35558;SDS011;21661;50.794;-1.066;2023-02-02T16:53:45;9.75;;;2.15;;
35558;SDS011;21661;50.794;-1.066;2023-02-02T16:58:59;10.20;;;2.40;;
35558;SDS011;21661;50.794;-1.066;2023-02-02T17:01:30;8.27;;;1.90;;
35558;SDS011;21661;50.794;-1.066;2023-02-02T17:04:20;10.60;;;1.73;;
35558;SDS011;21661;50.794;-1.066;2023-02-02T17:06:50;11.93;;;1.83;;
35558;SDS011;21661;50.794;-1.066;2023-02-02T17:11:56;13.73;;;3.05;;
35558;SDS011;21661;50.794;-1.066;2023-02-02T17:14:28;11.75;;;2.13;;
35558;SDS011;21661;50.794;-1.066;2023-02-02T17:16:56;13.70;;;4.13;;
35558;SDS011;21661;50.794;-1.066;2023-02-02T17:19:22;14.57;;;3.40;;
35558;SDS011;21661;50.794;-1.066;2023-02-02T17:21:48;13.98;;;3.58;;
35558;SDS011;21661;50.794;-1.066;2023-02-02T17:24:14;13.50;;;2.92;;
35558;SDS011;21661;50.794;-1.066;2023-02-02T17:26:40;10.85;;;2.83;;
35558;SDS011;21661;50.794;-1.066;2023-02-02T17:29:07;12.02;;;2.22;;
35558;SDS011;21661;50.794;-1.066;2023-02-02T17:31:36;9.73;;;1.75;;
35558;SDS011;21661;50.794;-1.066;2023-02-02T17:34:02;13.25;;;2.78;;
35558;SDS011;21661;50.794;-1.066;2023-02-02T17:38:58;10.23;;;2.03;;
35558;SDS011;21661;50.794;-1.066;2023-02-02T17:41:24;9.70;;;2.30;;
35558;SDS011;21661;50.794;-1.066;2023-02-02T17:43:50;10.73;;;2.30;;
35558;SDS011;21661;50.794;-1.066;2023-02-02T17:46:16;13.48;;;2.05;;
35558;SDS011;21661;50.794;-1.066;2023-02-02T17:48:42;9.75;;;2.00;;